Latest Coastal Weather Observations for Melbourne (Olympic Park)

IDV60701

Issued at 4:32 pm EST Thursday 28 July 2016 (issued every 10 minutes, with the page automatically refreshed every 10 minutes)

About coastal observations | Map of coastal stations | Coastal observations for VIC | Marine services | Other Formats
Station Details ID: 086338 Name: MELBOURNE (OLYMPIC PARK) Lat: -37.83 Lon: 144.98 Height: 7.53 m
Data from the previous 72 hours. | See also: Recent months at Melbourne (Olympic Park)
Date/Time
EST
Temp
°C
Wind Pressure Rain since
9am
mm
Weather Cloud Vis
km
Sea
Height
m
Swell
Dir  Spd
kts
Gust
kts
hPa Trend Height
m
Period
s
Dir
28/04:30pm 15.0 NNW 10 19 1022.3 - 0.0 - - 58 - - - -
28/04:00pm 15.0 WNW 5 9 1022.3 - 0.0 - - - - - - -
28/03:30pm 15.0 NW 9 18 1022.3 - 0.0 - - - - - - -
28/03:00pm 15.1 WNW 7 14 1022.3 - 0.0 - - - - - - -
28/02:30pm 14.9 NW 7 11 1022.3 - 0.0 - - - - - - -
28/02:00pm 14.8 NW 6 9 1022.4 - 0.0 - - - - - - -
28/01:30pm 14.5 NW 9 16 1022.6 - 0.0 - - - - - - -
28/01:00pm 14.3 NW 8 15 1023.0 - 0.0 - - - - - - -
28/12:30pm 14.4 WNW 8 13 1023.1 - 0.0 - - - - - - -
28/12:00pm 14.5 WNW 6 13 1023.3 - 0.0 - - - - - - -
28/11:30am 14.0 NNW 10 16 1023.6 - 0.0 - - - - - - -
28/11:00am 13.6 NNW 8 14 1023.9 - 0.0 - - - - - - -
28/10:30am 12.8 N 7 11 1024.0 - 0.0 - - - - - - -
28/10:00am 11.9 N 6 9 1024.1 - 0.0 - - - - - - -
28/09:30am 11.6 N 8 11 1024.0 - 0.0 - - - - - - -
28/09:00am 10.2 N 8 11 1023.7 - 0.0 - - - - - - -
28/08:30am 9.3 N 7 11 1023.7 - 0.0 - - - - - - -
28/08:00am 8.1 N 7 11 1023.7 - 0.0 - - - - - - -
28/07:30am 7.6 N 7 10 1023.5 - 0.0 - - - - - - -
28/07:00am 8.0 NNW 4 8 1023.3 - 0.0 - - - - - - -
28/06:30am 8.4 NNE 3 6 1023.0 - 0.0 - - - - - - -
28/06:00am 9.2 NW 5 9 1022.7 - 0.0 - - - - - - -
28/05:30am 8.2 N 4 6 1022.6 - 0.0 - - - - - - -
28/05:00am 7.6 CALM 0 4 1022.5 - 0.0 - - - - - - -
28/04:30am 6.9 WNW 1 3 1022.3 - 0.0 - - - - - - -
28/04:00am 7.8 NE 4 7 1022.2 - 0.0 - - - - - - -
28/03:30am 7.9 NNW 5 8 1022.1 - 0.0 - - - - - - -
28/03:00am 7.8 NNW 4 6 1022.2 - 0.0 - - - - - - -
28/02:30am 7.7 N 3 6 1022.4 - 0.0 - - - - - - -
28/02:00am 8.3 NNW 4 6 1022.3 - 0.0 - - - - - - -
28/01:30am 8.3 NE 3 4 1022.4 - 0.0 - - - - - - -
28/01:00am 8.7 N 5 8 1022.1 - 0.0 - - - - - - -
28/12:30am 9.4 NNW 6 8 1022.1 - 0.0 - - - - - - -
28/12:00am 9.8 NW 7 11 1022.2 - 0.0 - - - - - - -
 
Date/Time
EST
Temp
°C
Wind Pressure Rain since
9am
mm
Weather Cloud Vis
km
Sea
Height
m
Swell
Dir  Spd
kts
Gust
kts
hPa Trend Height
m
Period
s
Dir
27/11:30pm 9.6 NW 5 9 1022.3 - 0.0 - - - - - - -
27/11:00pm 9.6 NNW 7 12 1022.1 - 0.0 - - - - - - -
27/10:30pm 9.9 NW 8 13 1022.0 - 0.0 - - - - - - -
27/10:00pm 10.0 NW 8 11 1021.9 - 0.0 - - - - - - -
27/09:30pm 10.4 NW 8 11 1021.9 - 0.0 - - - - - - -
27/09:00pm 10.5 NW 6 9 1022.3 - 0.0 - - - - - - -
27/08:30pm 10.7 NW 6 9 1022.3 - 0.0 - - - - - - -
27/08:00pm 10.7 NW 5 6 1021.9 - 0.0 - - - - - - -
27/07:30pm 10.8 WNW 7 10 1021.6 - 0.0 - - - - - - -
27/07:00pm 10.8 W 6 12 1021.1 - 0.0 - - - - - - -
27/06:30pm 10.7 WNW 4 7 1020.4 - 0.0 - - - - - - -
27/06:00pm 10.7 WNW 5 10 1019.8 - 0.0 - - - - - - -
27/05:30pm 10.6 W 5 8 1019.5 - 0.0 - - - - - - -
27/05:00pm 10.7 W 7 13 1019.4 - 0.0 - - - - - - -
27/04:30pm 11.2 WSW 6 12 1019.1 - 0.0 - - - - - - -
27/04:00pm 11.3 W 7 17 1018.7 - 0.0 - - - - - - -
27/03:30pm 11.9 W 9 17 1018.1 - 0.0 - - - - - - -
27/03:00pm 12.3 WSW 6 13 1017.4 - 0.0 - - - - - - -
27/02:30pm 12.0 W 7 11 1016.9 - 0.0 - - - - - - -
27/02:00pm 11.6 WSW 8 15 1016.8 - 0.0 - - - - - - -
27/01:30pm 11.8 W 7 16 1016.6 - 0.0 - - - - - - -
27/01:00pm 11.6 SW 6 11 1016.4 - 0.0 - - - - - - -
27/12:30pm 11.7 SW 7 13 1016.2 - 0.0 - - - - - - -
27/12:00pm 12.0 SSW 6 11 1015.8 - 0.0 - - - - - - -
27/11:30am 11.7 SW 6 11 1015.7 - 0.0 - - - - - - -
27/11:00am 11.2 SW 7 12 1015.5 - 0.0 - - - - - - -
27/10:30am 10.9 WSW 7 13 1015.0 - 0.0 - - - - - - -
27/10:00am 10.7 SW 6 11 1014.7 - 0.0 - - - - - - -
27/09:30am 10.4 SSW 6 10 1013.8 - 0.0 - - - - - - -
27/09:00am 9.9 SW 5 8 1012.9 - 0.4 Rain - - - - - -
27/08:36am 9.9 WSW 7 14 1013.2 - 0.4 - - 10 - - - -
27/08:30am 9.8 WSW 7 14 1012.0 - 0.4 - - - - - - -
27/08:01am 10.2 W 7 13 1012.1 - 0.0 - - 7 - - - -
27/08:00am 10.2 W 7 13 1011.2 - 0.0 - - - - - - -
27/07:30am 10.4 WNW 6 11 1010.4 - 0.0 - - - - - - -
27/07:00am 10.4 WNW 5 8 1009.6 - 0.0 - - - - - - -
27/06:30am 10.2 NW 6 10 1008.8 - 0.0 - - - - - - -
27/06:00am 9.9 NW 7 11 1008.3 - 0.0 - - - - - - -
27/05:30am 9.9 NNW 6 9 1007.8 - 0.0 - - - - - - -
27/05:00am 9.8 NNW 5 8 1007.3 - 0.0 - - - - - - -
27/04:30am 9.7 NNW 7 10 1006.8 - 0.0 - - - - - - -
27/04:00am 9.2 N 6 11 1006.4 - 0.0 - - - - - - -
27/03:30am 8.9 N 7 12 1006.2 - 0.0 - - - - - - -
27/03:00am 8.7 N 8 12 1006.1 - 0.0 - - - - - - -
27/02:30am 8.7 N 9 13 1006.0 - 0.0 - - - - - - -
27/02:00am 9.0 N 7 13 1005.8 - 0.0 - - - - - - -
27/01:30am 9.2 N 10 17 1005.6 - 0.0 - - - - - - -
27/01:00am 9.2 N 12 19 1005.7 - 0.0 - - - - - - -
27/12:30am 9.6 N 13 20 1005.7 - 0.0 - - - - - - -
27/12:00am 9.6 N 12 20 1005.9 - 0.0 - - - - - - -
 
Date/Time
EST
Temp
°C
Wind Pressure Rain since
9am
mm
Weather Cloud Vis
km
Sea
Height
m
Swell
Dir  Spd
kts
Gust
kts
hPa Trend Height
m
Period
s
Dir
26/11:30pm 9.6 N 13 21 1006.1 - 0.0 - - - - - - -
26/11:00pm 9.6 N 11 21 1006.0 - 0.0 - - - - - - -
26/10:30pm 9.7 N 12 23 1006.5 - 0.0 - - - - - - -
26/10:00pm 9.8 N 11 18 1006.9 - 0.0 - - - - - - -
26/09:30pm 10.0 N 12 20 1007.1 - 0.0 - - - - - - -
26/09:00pm 10.0 N 11 17 1007.3 - 0.0 - - - - - - -
26/08:30pm 9.7 N 11 18 1007.2 - 0.0 - - - - - - -
26/08:00pm 9.9 N 12 19 1007.7 - 0.0 - - - - - - -
26/07:30pm 9.8 N 11 19 1007.7 - 0.0 - - - - - - -
26/07:00pm 9.6 N 11 17 1007.8 - 0.0 - - - - - - -
26/06:30pm 9.6 N 12 20 1008.2 - 0.0 - - - - - - -
26/06:00pm 9.4 N 9 14 1008.4 - 0.0 - - - - - - -
26/05:30pm 9.9 N 11 19 1008.7 - 0.0 - - - - - - -
26/05:00pm 10.6 N 10 17 1008.6 - 0.0 - - - - - - -
26/04:30pm 10.7 N 10 19 1008.8 - 0.0 - - - - - - -
26/04:00pm 10.4 N 10 15 1009.1 - 0.0 - - - - - - -
26/03:30pm 10.8 NNW 10 15 1009.6 - 0.0 - - - - - - -
26/03:00pm 10.2 N 9 14 1010.0 - 0.0 - - - - - - -
26/02:30pm 10.1 N 10 16 1010.5 - 0.0 - - - - - - -
26/02:00pm 9.9 NNW 12 19 1010.9 - 0.0 - - - - - - -
26/01:30pm 9.9 NNW 11 17 1011.2 - 0.0 - - - - - - -
26/01:00pm 9.9 NNW 11 17 1011.7 - 0.0 - - - - - - -
26/12:30pm 9.2 N 14 20 1012.4 - 0.0 - - - - - - -
26/12:00pm 9.5 NNW 12 23 1012.8 - 0.0 - - - - - - -
26/11:31am 9.1 NNW 15 25 1012.9 - 0.0 - - - - - - -
26/11:30am 9.2 NNW 14 25 1012.9 - 0.0 - - - - - - -
26/11:00am 9.1 N 12 22 1012.8 - 0.0 - - - - - - -
26/10:30am 8.7 N 10 19 1013.1 - 0.0 - - - - - - -
26/10:00am 8.3 NNW 11 20 1013.0 - 0.0 - - - - - - -
26/09:30am 7.9 NNW 10 17 1013.0 - 0.0 - - - - - - -
26/09:00am 8.0 N 8 13 1013.0 - 4.8 - - - - - - -
26/08:30am 7.0 N 9 14 1012.9 - 4.8 - - - - - - -
26/08:00am 7.2 N 8 12 1012.5 - 4.8 - - - - - - -
26/07:30am 7.4 N 7 11 1012.4 - 4.8 - - - - - - -
26/07:00am 7.5 N 7 11 1011.8 - 4.8 - - - - - - -
26/06:30am 7.5 N 7 11 1011.6 - 4.8 - - - - - - -
26/06:00am 6.9 NNW 8 12 1011.2 - 4.8 - - - - - - -
26/05:30am 7.0 N 8 10 1011.0 - 4.8 - - - - - - -
26/05:00am 8.0 NNW 5 9 1010.7 - 4.8 - - - - - - -
26/04:30am 7.6 NNW 6 11 1010.1 - 4.8 - - - - - - -
26/04:00am 8.1 NNW 8 14 1010.0 - 4.8 - - - - - - -
26/03:30am 8.1 NW 7 11 1010.0 - 4.8 - - - - - - -
26/03:00am 8.4 NW 8 13 1010.0 - 4.8 - - - - - - -
26/02:30am 8.6 NW 8 13 1009.7 - 4.8 - - - - - - -
26/02:00am 8.8 NW 8 15 1009.7 - 4.8 - - - - - - -
26/01:30am 8.6 NW 7 11 1009.3 - 4.8 - - - - - - -
26/01:00am 8.7 NW 8 15 1008.8 - 4.8 - - - - - - -
26/12:30am 8.8 NW 8 13 1008.9 - 4.8 - - - - - - -
26/12:00am 8.8 NW 8 14 1008.8 - 4.8 - - - - - - -
 
Date/Time
EST
Temp
°C
Wind Pressure Rain since
9am
mm
Weather Cloud Vis
km
Sea
Height
m
Swell
Dir  Spd
kts
Gust
kts
hPa Trend Height
m
Period
s
Dir
25/11:30pm 8.8 WNW 7 15 1008.5 - 4.8 - - - - - - -
25/11:00pm 8.8 NW 9 14 1008.2 - 4.8 - - - - - - -
25/10:30pm 8.8 NW 9 17 1007.8 - 4.8 - - - - - - -
25/10:00pm 8.3 NW 8 13 1007.3 - 4.8 - - - - - - -
25/09:30pm 9.2 NW 10 14 1007.1 - 4.8 - - - - - - -
25/09:00pm 10.6 NW 10 19 1006.9 - 4.8 - - - - - - -
25/08:30pm 10.5 W 8 16 1006.4 - 4.8 - - - - - - -
25/08:00pm 11.0 NW 8 15 1005.8 - 4.8 - - - - - - -
25/07:30pm 10.7 NNW 9 14 1005.1 - 4.8 - - - - - - -
25/07:07pm 9.8 WNW 6 11 1006.2 - 4.8 - - 10 - - - -
25/07:00pm 9.7 NW 8 18 1005.0 - 4.8 - - - - - - -
25/06:33pm 11.2 W 9 17 1006.2 - 1.2 - - 7 - - - -
25/06:30pm 11.6 WNW 8 13 1004.9 - 0.8 - - - - - - -
25/06:00pm 12.2 NNW 16 27 1002.9 - 0.0 - - - - - - -
25/05:30pm 12.3 N 15 26 1002.6 - 0.0 - - - - - - -
25/05:00pm 12.4 N 15 29 1002.7 - 0.0 - - - - - - -
25/04:57pm 12.4 N 15 29 1002.7 - 0.0 - - - - - - -

Other Formats:

Comma delimited format used in spreadsheet applications
http://www.bom.gov.au/fwo/IDV60701/IDV60701.95936.axf

JavaScript Object Notation format (JSON) in row-major order
http://www.bom.gov.au/fwo/IDV60701/IDV60701.95936.json